Home > Products > Valid Products > TAF

000
FTUS42 KJAX 242300 RRA
TAFCRG
TAF
KCRG 242341Z 2500/2524 20006KT P6SM VCSH SCT045 SCT120 BKN250
     FM250400 20004KT 5SM -RADZ BR SCT010 BKN040
     FM250700 23004KT 2SM -RADZ BR OVC005
     FM251200 29004KT 2SM -RADZ BR OVC005
     FM251700 33006KT 4SM -RADZ BR SCT008 BKN010=



000
FTUS42 KJAX 242300 RRA
TAFSSI
TAF
KSSI 242341Z 2500/2524 27006KT P6SM -SHRA SCT020 BKN025 OVC030
      TEMPO 2501/2503 VRB10G25KT 2SM TSRA BKN015CB
     FM250300 25004KT 5SM -RADZ BR OVC015
     FM250600 27004KT 2SM -RADZ BR OVC005
     FM251200 35004KT 2SM -RADZ BR OVC005
     FM251700 36008KT 4SM -RADZ BR SCT008 BKN010=



000
FTUS42 KJAX 242300 RRA
TAFJAX
TAF
KJAX 242341Z 2500/2524 20006KT P6SM VCSH SCT045 SCT120 BKN250
     FM250400 20004KT 5SM -RADZ BR SCT010 BKN040
     FM250700 23004KT 2SM -RADZ BR OVC005
     FM251200 29004KT 2SM -RADZ BR OVC005
     FM251700 33006KT 4SM -RADZ BR SCT008 BKN010=



000
FTUS42 KJAX 242300 RRA
TAFGNV
TAF
KGNV 242341Z 2500/2524 22006KT P6SM -SHRA OVC025
     FM250400 21004KT 5SM -RADZ BR OVC015
     FM250700 24004KT 2SM -RADZ BR OVC005
     FM251200 32004KT 2SM -RADZ BR OVC005
     FM251700 33006KT 4SM -RADZ BR SCT008 BKN010=



000
FTUS42 KJAX 242100 AAB
TAFGNV
TAF AMD
KGNV 242147Z 2422/2518 21012G20KT P6SM FEW030
     FM250000 21006KT P6SM -SHRA OVC025
     FM250300 21004KT 5SM -RADZ BR OVC015
     FM250600 24004KT 2SM -RADZ BR OVC005
     FM251200 32004KT 2SM -RADZ BR OVC005=



000
FTUS42 KJAX 242100 AAB
TAFGNV
TAF AMD
KGNV 242147Z 2422/2518 21012G20KT P6SM FEW030
     FM250000 21006KT P6SM -SHRA OVC025
     FM250300 21004KT 5SM -RADZ BR OVC015
     FM250600 24004KT 2SM -RADZ BR OVC005
     FM251200 32004KT 2SM -RADZ BR OVC005=



000
FTUS42 KJAX 242100 AAB
TAFCRG
TAF AMD
KCRG 242144Z 2422/2518 21012G18KT P6SM FEW040 SCT250
     FM250000 21006KT P6SM -SHRA OVC025
     FM250300 21004KT 5SM -RADZ BR OVC015
     FM250600 24004KT 2SM -RADZ BR OVC005
     FM251200 32004KT 2SM -RADZ BR OVC005=



000
FTUS42 KJAX 242100 AAB
TAFCRG
TAF AMD
KCRG 242144Z 2422/2518 21012G18KT P6SM FEW040 SCT250
     FM250000 21006KT P6SM -SHRA OVC025
     FM250300 21004KT 5SM -RADZ BR OVC015
     FM250600 24004KT 2SM -RADZ BR OVC005
     FM251200 32004KT 2SM -RADZ BR OVC005=



000
FTUS42 KJAX 242100 AAB
TAFJAX
TAF AMD
KJAX 242144Z 2422/2518 23015G20KT P6SM SCT030 BKN250
     FM250000 21006KT P6SM -SHRA OVC025
     FM250300 21004KT 5SM -RADZ BR OVC015
     FM250600 24004KT 2SM -RADZ BR OVC005
     FM251200 32004KT 2SM -RADZ BR OVC005=



000
FTUS42 KJAX 242100 AAB
TAFJAX
TAF AMD
KJAX 242144Z 2422/2518 23015G20KT P6SM SCT030 BKN250
     FM250000 21006KT P6SM -SHRA OVC025
     FM250300 21004KT 5SM -RADZ BR OVC015
     FM250600 24004KT 2SM -RADZ BR OVC005
     FM251200 32004KT 2SM -RADZ BR OVC005=



000
FTUS42 KJAX 242000 AAB
TAFSSI
TAF AMD
KSSI 242001Z 2420/2518 23007KT P6SM BKN035
     FM250000 21006KT P6SM -SHRA OVC025
     FM250300 21004KT 5SM -RADZ BR OVC015
     FM250600 24004KT 2SM -RADZ BR OVC005
     FM251200 32004KT 2SM -RADZ BR OVC005=



000
FTUS42 KJAX 241900 AAA
TAFGNV
TAF AMD
KGNV 241906Z 2419/2518 21012G20KT P6SM SCT030 BKN060
     FM242100 21010G16KT P6SM VCSH BKN025
     FM250000 21006KT P6SM -SHRA OVC025
     FM250300 21004KT 5SM -RADZ BR OVC015
     FM250600 24004KT 2SM -RADZ BR OVC005
     FM251200 32004KT 2SM -RADZ BR OVC005=



000
FTUS42 KJAX 241900 AAA
TAFSSI
TAF AMD
KSSI 241905Z 2419/2518 21010KT P6SM BKN025
     FM242000 21010G16KT P6SM VCSH BKN025
     FM250000 21006KT P6SM -SHRA OVC025
     FM250300 21004KT 5SM -RADZ BR OVC015
     FM250600 24004KT 2SM -RADZ BR OVC005
     FM251200 32004KT 2SM -RADZ BR OVC005=



000
FTUS42 KJAX 241900 AAA
TAFJAX
TAF AMD
KJAX 241904Z 2419/2518 21012G20KT P6SM SCT030 BKN050
     FM242100 21010G16KT P6SM VCSH BKN025
     FM250000 21006KT P6SM -SHRA OVC025
     FM250300 21004KT 5SM -RADZ BR OVC015
     FM250600 24004KT 2SM -RADZ BR OVC005
     FM251200 32004KT 2SM -RADZ BR OVC005=



000
FTUS42 KJAX 241900 AAA
TAFCRG
TAF AMD
KCRG 241904Z 2419/2518 21015G25KT P6SM FEW035
     FM242100 21010G16KT P6SM VCSH BKN025
     FM250000 21006KT P6SM -SHRA OVC025
     FM250300 21004KT 5SM -RADZ BR OVC015
     FM250600 24004KT 2SM -RADZ BR OVC005
     FM251200 32004KT 2SM -RADZ BR OVC005=



000
FTUS42 KJAX 241700
TAFJAX
TAF
KJAX 241720Z 2418/2518 21012G20KT P6SM BKN025
     FM242100 21010G16KT P6SM VCSH BKN025
     FM250000 21006KT P6SM -SHRA OVC025
     FM250300 21004KT 5SM -RADZ BR OVC015
     FM250600 24004KT 2SM -RADZ BR OVC005
     FM251200 32004KT 2SM -RADZ BR OVC005=



000
FTUS42 KJAX 241700
TAFSSI
TAF
KSSI 241720Z 2418/2518 21012G20KT P6SM BKN025
     FM242000 21010G16KT P6SM VCSH BKN025
     FM250000 21006KT P6SM -SHRA OVC025
     FM250300 21004KT 5SM -RADZ BR OVC015
     FM250600 24004KT 2SM -RADZ BR OVC005
     FM251200 32004KT 2SM -RADZ BR OVC005=



000
FTUS42 KJAX 241700
TAFGNV
TAF
KGNV 241720Z 2418/2518 21012G20KT P6SM BKN025
     FM242100 21010G16KT P6SM VCSH BKN025
     FM250000 21006KT P6SM -SHRA OVC025
     FM250300 21004KT 5SM -RADZ BR OVC015
     FM250600 24004KT 2SM -RADZ BR OVC005
     FM251200 32004KT 2SM -RADZ BR OVC005=



000
FTUS42 KJAX 241700
TAFCRG
TAF
KCRG 241720Z 2418/2518 21012G20KT P6SM BKN025
     FM242100 21010G16KT P6SM VCSH BKN025
     FM250000 21006KT P6SM -SHRA OVC025
     FM250300 21004KT 5SM -RADZ BR OVC015
     FM250600 24004KT 2SM -RADZ BR OVC005
     FM251200 32004KT 2SM -RADZ BR OVC005=



000
FTUS42 KJAX 241500 AAA
TAFCRG
TAF AMD
KCRG 241552Z 2416/2512 21012G18KT P6SM BKN025
     FM241900 21012G18KT P6SM VCSH BKN035
     FM242300 22007KT P6SM VCSH BKN025=



000
FTUS42 KJAX 241500 AAB
TAFJAX
TAF AMD
KJAX 241551Z 2416/2512 21012KT P6SM BKN025
     FM241900 21012G20KT P6SM VCSH BKN035
     FM242300 23007KT P6SM VCSH BKN025=



000
FTUS42 KJAX 241500 AAA
TAFSSI
TAF AMD
KSSI 241539Z 2416/2512 20010KT P6SM BKN015
     FM241900 21010G18KT P6SM VCSH BKN025
     FM242300 23007KT P6SM VCSH BKN020=



000
FTUS42 KJAX 241500 AAA
TAFGNV
TAF AMD
KGNV 241524Z 2415/2512 20010KT P6SM BKN015 BKN025
     FM241700 20012G18KT P6SM BKN025
     FM241900 21012G18KT P6SM VCSH BKN035=



000
FTUS42 KJAX 241400 AAA
TAFJAX
TAF AMD
KJAX 241421Z 2414/2512 21012KT P6SM BKN015
     FM241700 21012G20KT P6SM VCSH BKN035
     FM242300 23007KT P6SM VCSH BKN025=



000
FTUS42 KJAX 241100
TAFGNV
TAF
KGNV 241120Z 2412/2512 19008KT P6SM SCT015 BKN025 WS015/22035KT
      TEMPO 2412/2414 OVC015
     FM241500 21012KT P6SM VCSH BKN035
     FM241800 21011KT P6SM VCSH BKN025=



000
FTUS42 KJAX 241100
TAFSSI
TAF
KSSI 241120Z 2412/2512 19005KT P6SM SCT012 BKN080 WS015/22035KT
      TEMPO 2412/2414 BKN012
     FM241500 21010G18KT P6SM VCSH BKN025
     FM242300 23007KT P6SM VCSH BKN020=



000
FTUS42 KJAX 241100
TAFCRG
TAF
KCRG 241120Z 2412/2512 19005KT P6SM SCT012 BKN080 WS015/22035KT
      TEMPO 2412/2414 OVC012
     FM241500 21012G20KT P6SM VCSH BKN020
     FM242300 22007KT P6SM VCSH BKN025=



000
FTUS42 KJAX 241100
TAFJAX
TAF
KJAX 241120Z 2412/2512 20008KT P6SM SCT015 BKN080 WS015/22035KT
      TEMPO 2412/2414 BKN015
     FM241500 21012G20KT P6SM VCSH BKN035
     FM242300 23007KT P6SM VCSH BKN025=



000
FTUS42 KJAX 241000 AAC
TAFSSI
TAF AMD
KSSI 241013Z 2410/2506 19005KT P6SM SCT012 BKN080 WS015/22035KT
      TEMPO 2410/2413 BKN012
     FM241500 21010G18KT P6SM VCSH BKN025
     FM242300 22007KT P6SM VCSH BKN025=



000
FTUS42 KJAX 241000 AAC
TAFSSI
TAF AMD
KSSI 241013Z 2410/2506 19005KT P6SM SCT012 BKN080 WS015/22035KT
      TEMPO 2410/2413 BKN012
     FM241500 21010G18KT P6SM VCSH BKN025
     FM242300 22007KT P6SM VCSH BKN025=



000
FTUS42 KJAX 241000 AAC
TAFJAX
TAF AMD
KJAX 241012Z 2410/2506 20008KT P6SM BKN015 WS015/22035KT
      TEMPO 2410/2413 SCT015 BKN080
     FM241500 21012G20KT P6SM VCSH BKN035
     FM242300 23007KT P6SM VCSH BKN025=



000
FTUS42 KJAX 241000 AAC
TAFJAX
TAF AMD
KJAX 241012Z 2410/2506 20008KT P6SM BKN015 WS015/22035KT
      TEMPO 2410/2413 SCT015 BKN080
     FM241500 21012G20KT P6SM VCSH BKN035
     FM242300 23007KT P6SM VCSH BKN025=



000
FTUS42 KJAX 240800 AAB
TAFSSI
TAF AMD
KSSI 240802Z 2408/2506 19005KT 6SM BR SCT005 OVC012 WS015/22035KT
      TEMPO 2409/2413 3SM BR BKN005
     FM241500 21010G18KT P6SM VCSH BKN020
     FM242300 22007KT P6SM VCSH BKN025=



000
FTUS42 KJAX 240800 AAB
TAFJAX
TAF AMD
KJAX 240800Z 2408/2506 20008KT P6SM BKN015 WS015/22035KT
      TEMPO 2409/2413 BKN005 OVC012
     FM241500 21012G20KT P6SM VCSH BKN020
     FM242300 23007KT P6SM VCSH BKN025=



000
FTUS42 KJAX 240700 AAA
TAFJAX
TAF AMD
KJAX 240704Z 2407/2506 19005KT 6SM BR SCT015 BKN060 WS015/22035KT
      TEMPO 2409/2413 3SM BR BKN005 OVC012
     FM241500 21012G20KT P6SM VCSH BKN020
     FM242300 23007KT P6SM VCSH BKN025=



000
FTUS42 KJAX 240600 AAA
TAFGNV
TAF AMD
KGNV 240608Z 2406/2506 19008KT P6SM OVC015 WS015/22035KT
      TEMPO 2409/2413 3SM BR OVC008
     FM241600 21012KT P6SM BKN015
     FM241800 21011KT P6SM BKN025=



000
FTUS42 KJAX 240600 AAA
TAFCRG
TAF AMD
KCRG 240606Z 2406/2506 19005KT 6SM BR BKN012 WS015/22035KT
      TEMPO 2409/2413 3SM BR OVC006
     FM241500 21012G20KT P6SM VCSH BKN020
     FM242300 22007KT P6SM VCSH BKN025=



000
FTUS42 KJAX 240600 AAA
TAFSSI
TAF AMD
KSSI 240606Z 2406/2506 19005KT 6SM BR SCT008 WS015/22035KT
      TEMPO 2409/2413 3SM BR BKN008
     FM241500 21010G18KT P6SM VCSH BKN020
     FM242300 22007KT P6SM VCSH BKN025=



000
FTUS42 KJAX 240500
TAFCRG
TAF
KCRG 240520Z 2406/2506 19005KT 1SM BR OVC012 WS015/22035KT
      TEMPO 2406/2410 1/2SM FG OVC006
     FM241500 21012G20KT P6SM VCSH BKN020
     FM242300 22007KT P6SM VCSH BKN025=



000
FTUS42 KJAX 240500
TAFJAX
TAF
KJAX 240520Z 2406/2506 19005KT 6SM BR SCT015 BKN060 WS015/22035KT
     FM240900 20004KT 3SM BR BKN006 OVC012
      TEMPO 2409/2413 1SM BR OVC003
     FM241500 21012G20KT P6SM VCSH BKN020
     FM242300 23007KT P6SM VCSH BKN025=



000
FTUS42 KJAX 240500
TAFSSI
TAF
KSSI 240520Z 2406/2506 19005KT 1/2SM FG OVC003 WS015/22035KT
      TEMPO 2406/2410 1/4SM FG OVC001
     FM241500 21010G18KT P6SM VCSH BKN020
     FM242300 22007KT P6SM VCSH BKN025=



000
FTUS42 KJAX 240500
TAFGNV
TAF
KGNV 240520Z 2406/2506 19008KT 3SM BR BKN005 WS015/22035KT
     FM241600 21012KT P6SM BKN015
     FM241800 21011KT P6SM BKN025=



000
FTUS42 KJAX 240400 AAC
TAFCRG
TAF AMD
KCRG 240420Z 2404/2424 19005KT 3SM BR VCSH SCT020 BKN035
      TEMPO 2404/2406 1SM BR
     FM240600 20010KT 4SM BR BKN008 WS015/22035KT
     FM241600 21012KT P6SM BKN015
     FM241800 22011KT P6SM BKN025=



000
FTUS42 KJAX 240400 AAB
TAFGNV
TAF AMD
KGNV 240407Z 2404/2424 20010KT P6SM BKN012
     FM240600 19008KT 3SM BR BKN005 WS015/22035KT
     FM241600 21012KT P6SM BKN015
     FM241800 21011KT P6SM BKN025=



000
FTUS42 KJAX 240400 AAE
TAFSSI
TAF AMD
KSSI 240406Z 2404/2424 20004KT 3SM BR VCSH SCT011 BKN030
      TEMPO 2404/2406 1SM BR
     FM240600 20005KT 2SM BR VCSH BKN007 OVC015 WS015/22035KT
     FM240800 20006KT 1SM BR OVC003 WS015/22035KT
     FM241600 21012KT P6SM BKN015
     FM241800 20010KT P6SM BKN025=



000
FTUS42 KJAX 240300 AAD
TAFSSI
TAF AMD
KSSI 240339Z 2404/2424 20008KT 6SM BR VCSH SCT011 BKN030
     FM240500 20007KT 6SM BR VCSH SCT008 BKN015 WS015/22035KT
     FM240600 20007KT 4SM BR VCSH BKN007 OVC015 WS015/22035KT
     FM240800 20006KT 1SM BR OVC003 WS015/22035KT
     FM241600 21012KT P6SM BKN015
     FM241800 20010KT P6SM BKN025=



000
FTUS42 KJAX 240300 AAB
TAFCRG
TAF AMD
KCRG 240328Z 2403/2424 19008KT P6SM VCSH SCT020 BKN035
     FM240600 20010KT 4SM BR BKN008 WS015/22035KT
     FM241600 21012KT P6SM BKN015
     FM241800 22011KT P6SM BKN025=



000
FTUS42 KJAX 240300 AAB
TAFCRG
TAF AMD
KCRG 240328Z 2403/2424 19008KT P6SM VCSH SCT020 BKN035
     FM240600 20010KT 4SM BR BKN008 WS015/22035KT
     FM241600 21012KT P6SM BKN015
     FM241800 22011KT P6SM BKN025=



000
FTUS42 KJAX 240200 AAC
TAFSSI
TAF AMD
KSSI 240216Z 2402/2424 21008G15KT 5SM BR VCSH SCT011 BKN060
      TEMPO 2402/2404 3SM SHRA BR BKN011
     FM240400 18011KT P6SM VCSH OVC010 WS015/22035KT
     FM240700 20005KT 1SM BR OVC003
     FM241600 21012KT P6SM BKN015
     FM241800 20010KT P6SM BKN025=



000
FTUS42 KJAX 240100 AAB
TAFSSI
TAF AMD
KSSI 240123Z 2401/2424 18010G15KT 5SM BR VCSH BKN008 OVC012
      TEMPO 2402/2404 VRB20G30KT 2SM TSRA SCT005 OVC010CB
     FM240400 18011KT P6SM VCSH OVC010 WS015/22035KT
     FM240700 20005KT 1SM BR OVC003
     FM241600 21012KT P6SM BKN015
     FM241800 20010KT P6SM BKN025=



000
FTUS42 KJAX 240100 AAA
TAFGNV
TAF AMD
KGNV 240122Z 2401/2424 20012KT P6SM SCT030 BKN060
     FM240600 19008KT 3SM BR BKN005 WS015/22035KT
     FM241600 21012KT P6SM BKN015
     FM241800 21011KT P6SM BKN025=



000
FTUS42 KJAX 240100 AAA
TAFCRG
TAF AMD
KCRG 240121Z 2401/2424 19010KT P6SM VCSH SCT020 BKN035
     FM240300 19008KT 4SM BR BKN010
     FM240600 20010KT 4SM BR BKN010 WS015/22035KT
     FM241600 21012KT P6SM BKN015
     FM241800 22011KT P6SM BKN025=



000
FTUS42 KJAX 240100 AAA
TAFJAX
TAF AMD
KJAX 240120Z 2401/2424 18010KT P6SM VCSH FEW020 BKN035
     FM240600 19008KT 4SM BR BKN009 WS015/22035KT
     FM241600 21012KT P6SM BKN015
     FM241800 23011KT P6SM BKN025=



000
FTUS42 KJAX 240000 AAA
TAFSSI
TAF AMD
KSSI 240038Z 2401/2424 18010G15KT P6SM VCSH BKN007 OVC012
      TEMPO 2402/2404 VRB20G30KT 2SM TSRA SCT005 OVC010CB
     FM240400 18011KT P6SM VCSH OVC010
     FM240700 20005KT 1SM BR OVC003
     FM241600 21012KT P6SM BKN015
     FM241800 20010KT P6SM BKN025=



000
FTUS42 KJAX 232300 RRA
TAFSSI
TAF
KSSI 232346Z 2400/2424 18010G15KT P6SM VCSH SCT005 OVC030
      TEMPO 2400/2404 BKN012
     FM240400 16011KT P6SM VCSH OVC010
     FM240700 20005KT 1SM BR OVC003
     FM241600 21012KT P6SM BKN015
     FM241800 20010KT P6SM BKN025=



000
FTUS42 KJAX 232300 RRA
TAFGNV
TAF
KGNV 232346Z 2400/2424 20012KT P6SM SCT030 BKN060
     FM240600 19008KT 3SM BR BKN005
     FM241600 21012KT P6SM BKN015
     FM241800 21011KT P6SM BKN025=



000
FTUS42 KJAX 232300 RRA
TAFJAX
TAF
KJAX 232346Z 2400/2424 18010KT P6SM VCSH FEW020 BKN035
     FM240600 19008KT 4SM BR BKN009
     FM241600 21012KT P6SM BKN015
     FM241800 23011KT P6SM BKN025=



000
FTUS42 KJAX 232300 RRA
TAFCRG
TAF
KCRG 232346Z 2400/2424 19010KT P6SM VCSH SCT020 BKN035
     FM240300 19008KT 4SM BR BKN010
     FM241600 21012KT P6SM BKN015
     FM241800 22011KT P6SM BKN025=



000
FTUS42 KJAX 231800 AAA
TAFSSI
TAF AMD
KSSI 231859Z 2319/2418 16004KT P6SM VCSH SCT005 OVC030
      TEMPO 2319/2321 5SM BR BKN002
     FM240400 16011KT P6SM VCSH OVC010
     FM240700 20005KT 1SM BR OVC003
     FM241600 21012KT P6SM BKN015=



000
FTUS42 KJAX 231700
TAFJAX
TAF
KJAX 231729Z 2318/2418 17008KT P6SM BKN025
     FM232200 18015KT P6SM VCTS SCT025CB BKN250
     FM240000 19012KT P6SM SCT025 BKN100
     FM240600 19008KT 4SM BR BKN009
     FM241600 21012KT P6SM BKN015=



000
FTUS42 KJAX 231700
TAFGNV
TAF
KGNV 231729Z 2318/2418 18011KT P6SM BKN025
     FM232000 19013KT P6SM SCT030 BKN250
     FM240600 19008KT 3SM BR BKN005
     FM241600 21012KT P6SM BKN015=



000
FTUS42 KJAX 231700
TAFCRG
TAF
KCRG 231729Z 2318/2418 20010KT P6SM BKN020
     FM232200 19015KT P6SM VCTS SCT025CB BKN250
     FM240000 19012KT P6SM SCT025 BKN100
     FM240300 19008KT 4SM BR BKN010
     FM241600 21012KT P6SM BKN015=



000
FTUS42 KJAX 231700
TAFSSI
TAF
KSSI 231729Z 2318/2418 16004KT P6SM OVC030
     FM240400 16011KT P6SM VCSH OVC010
     FM240700 20005KT 1SM BR OVC003
     FM241600 21012KT P6SM BKN015=



000
FTUS42 KJAX 231700 AAF
TAFSSI
TAF AMD
KSSI 231700Z 2317/2412 15004KT P6SM BKN002
     FM231900 17015G25KT P6SM VCTS BKN035CB
     FM240100 18012KT P6SM VCSH SCT035 BKN050=



000
FTUS42 KJAX 231500 AAB
TAFJAX
TAF AMD
KJAX 231557Z 2316/2412 17008KT P6SM BKN015
     FM240000 20010KT P6SM VCSH SCT035 BKN050=



000
FTUS42 KJAX 231400 AAE
TAFSSI
TAF AMD
KSSI 231447Z 2315/2412 00000KT 3/4SM BR OVC002
     FM231700 14014KT P6SM BKN015
     FM231900 17015G25KT P6SM VCTS BKN035CB
     FM240100 18012KT P6SM VCSH SCT035 BKN050=



000
FTUS42 KJAX 231400 AAA
TAFJAX
TAF AMD
KJAX 231441Z 2315/2412 12005KT P6SM OVC009
     FM231900 18015G25KT P6SM VCTS BKN035CB
     FM240000 20010KT P6SM VCSH SCT035 BKN050=



000
FTUS42 KJAX 231400 AAD
TAFSSI
TAF AMD
KSSI 231404Z 2314/2412 10012KT 4SM BR OVC002
     FM231500 14014KT P6SM BKN015
     FM231900 17015G25KT P6SM VCTS BKN035CB
     FM240100 18012KT P6SM VCSH SCT035 BKN050=



000
FTUS42 KJAX 231300 AAC
TAFSSI
TAF AMD
KSSI 231316Z 2313/2412 10012KT 2SM RA BKN010
     FM231500 14014KT P6SM BKN015
     FM231900 17015G25KT P6SM VCTS BKN035CB
     FM240100 18012KT P6SM VCSH SCT035 BKN050=



000
FTUS42 KJAX 231200 AAA
TAFJAX
TAF AMD
KJAX 231247Z 2313/2412 12005KT P6SM OVC015
     FM231900 18015G25KT P6SM VCTS BKN035CB
     FM240000 20010KT P6SM VCSH SCT035 BKN050=



000
FTUS42 KJAX 231200 AAA
TAFCRG
TAF AMD
KCRG 231244Z 2313/2412 21003KT P6SM BKN010
     FM231900 18015G25KT P6SM VCTS BKN035CB
     FM240000 20010KT P6SM VCSH SCT035 BKN050=



000
FTUS42 KJAX 231200 AAA
TAFGNV
TAF AMD
KGNV 231243Z 2313/2412 13008KT P6SM OVC005
     FM231400 17012KT P6SM BKN010
     FM231900 18015G25KT P6SM VCTS BKN035CB
     FM240000 20010KT P6SM VCSH SCT035 BKN050=



000
FTUS42 KJAX 231200 AAB
TAFSSI
TAF AMD
KSSI 231241Z 2313/2412 10012KT 3SM -RA VCTS SCT003 OVC010CB
      TEMPO 2313/2314 1SM RA BKN003 OVC015
     FM231500 14014G22KT P6SM VCSH SCT025 BKN035
     FM231900 17015G25KT P6SM VCTS BKN035CB
     FM240100 18012KT P6SM VCSH SCT035 BKN050=



000
FTUS42 KJAX 231100 AAA
TAFSSI
TAF AMD
KSSI 231142Z 2312/2412 10012KT 3SM -RA VCTS SCT003 OVC010CB
      WS020/15040KT
      TEMPO 2312/2313 2SM RA BKN003 OVC015
     FM231500 14014G22KT P6SM VCSH SCT025 BKN035
     FM231900 17015G25KT P6SM VCTS BKN035CB
     FM240100 18012KT P6SM VCSH SCT035 BKN050=



000
FTUS42 KJAX 231100
TAFGNV
TAF
KGNV 231120Z 2312/2412 15010KT P6SM VCSH BKN005 OVC015
      WS020/16040KT
      TEMPO 2312/2313 6SM -RA SCT008 OVC015
     FM231400 16013G21KT P6SM VCSH SCT015 BKN035
     FM231900 18015G25KT P6SM VCTS BKN035CB
     FM240000 20010KT P6SM VCSH SCT035 BKN050=



000
FTUS42 KJAX 231100
TAFJAX
TAF
KJAX 231120Z 2312/2412 14012KT 5SM -RA BKN008 OVC015 WS020/16040KT
      TEMPO 2312/2313 3SM RA SCT008 OVC015
     FM231400 16013G21KT P6SM VCSH SCT015 BKN035
     FM231900 18015G25KT P6SM VCTS BKN035CB
     FM240000 20010KT P6SM VCSH SCT035 BKN050=



000
FTUS42 KJAX 231100
TAFSSI
TAF
KSSI 231120Z 2312/2412 10012KT 3SM -RA VCTS BKN015CB OVC040
      WS020/15040KT
      TEMPO 2312/2313 2SM RA BKN006 OVC015
     FM231500 14014G22KT P6SM VCSH SCT025 BKN035
     FM231900 17015G25KT P6SM VCTS BKN035CB
     FM240100 18012KT P6SM VCSH SCT035 BKN050=



000
FTUS42 KJAX 231100
TAFCRG
TAF
KCRG 231120Z 2312/2412 15012KT 6SM -RA BKN008 OVC015 WS020/16040KT
      TEMPO 2312/2313 3SM RA SCT008 OVC015
     FM231400 16013G21KT P6SM VCSH SCT015 BKN035
     FM231900 18015G25KT P6SM VCTS BKN035CB
     FM240000 20010KT P6SM VCSH SCT035 BKN050=



000
FTUS42 KJAX 231000 AAA
TAFGNV
TAF AMD
KGNV 231002Z 2310/2406 12010KT 5SM -RA VCTS BKN015CB OVC025
      WS020/16040KT
      TEMPO 2310/2313 2SM RA BKN006 OVC015
     FM231500 18015G24KT P6SM VCTS SCT025CB BKN035
     FM240000 20010KT P6SM VCSH SCT035 BKN050=



000
FTUS42 KJAX 230500
TAFSSI
TAF
KSSI 230520Z 2306/2406 08010KT P6SM VCSH SCT025 OVC040
      WS020/12040KT
      TEMPO 2306/2309 3SM RA BR OVC025
     FM230900 10012KT 5SM -RA VCTS BKN015CB OVC040 WS020/15040KT
      TEMPO 2309/2313 2SM RA BKN006 OVC015
     FM231800 17014G22KT P6SM VCTS SCT025CB BKN035
     FM240100 18012KT P6SM VCSH SCT035 BKN050=



000
FTUS42 KJAX 230500
TAFCRG
TAF
KCRG 230520Z 2306/2406 12012KT P6SM VCSH SCT025 OVC040
      WS020/13040KT
      TEMPO 2306/2308 3SM RA BR OVC025
     FM230800 15012KT 5SM -RA VCTS BKN015CB OVC040 WS020/16040KT
      TEMPO 2309/2313 2SM RA BKN006 OVC015
     FM231600 18014G22KT P6SM VCTS SCT025CB BKN035
     FM240000 20010KT P6SM VCSH SCT035 BKN050=



000
FTUS42 KJAX 230500
TAFGNV
TAF
KGNV 230520Z 2306/2406 12010KT 5SM -RA VCTS SCT025CB OVC040
      WS020/16040KT
      TEMPO 2306/2310 2SM RA BKN006 OVC015
     FM231500 18015G24KT P6SM VCTS SCT025CB BKN035
     FM240000 20010KT P6SM VCSH SCT035 BKN050=



000
FTUS42 KJAX 230500
TAFJAX
TAF
KJAX 230520Z 2306/2406 12012KT P6SM VCSH SCT025 OVC040
      WS020/13040KT
      TEMPO 2306/2308 3SM RA BR OVC025
     FM230800 15012KT 5SM -RA VCTS BKN015CB OVC040 WS020/16040KT
      TEMPO 2309/2313 2SM RA BKN006 OVC015
     FM231600 18014G22KT P6SM VCTS SCT025CB BKN035
     FM240000 20010KT P6SM VCSH SCT035 BKN050=



000
FTUS42 KJAX 222300 AAA
TAFSSI
TAF AMD
KSSI 222348Z 2300/2324 08010KT P6SM SCT025 OVC035
      TEMPO 2300/2302 5SM -SHRA
     FM230800 08012KT P6SM VCTS SCT015 BKN025CB WS020/14040KT
      TEMPO 2309/2313 3SM RA SCT008 OVC012
     FM231700 17010G18KT 6SM -SHRA SCT020 BKN030=



000
FTUS42 KJAX 222300
TAFJAX
TAF
KJAX 222340Z 2300/2324 09010KT P6SM VCSH SCT025 OVC035
     FM230600 13010KT P6SM VCTS SCT012 OVC020CB WS020/15040KT
      TEMPO 2308/2312 3SM RA BR SCT008 OVC015
     FM231600 18014G22KT 6SM -SHRA SCT025 OVC035=



000
FTUS42 KJAX 222300
TAFCRG
TAF
KCRG 222340Z 2300/2324 09010KT P6SM VCSH SCT025 OVC035
     FM230600 13010KT P6SM VCTS SCT012 OVC020CB WS020/15040KT
      TEMPO 2308/2312 3SM RA BR SCT008 OVC015
     FM231600 18014G22KT 6SM -SHRA SCT025 OVC035=



000
FTUS42 KJAX 222300
TAFGNV
TAF
KGNV 222340Z 2300/2324 09010KT P6SM SCT025 OVC035
     FM230500 11008KT P6SM VCTS SCT012 OVC025CB WS020/14040KT
      TEMPO 2306/2310 3SM SHRA SCT006 OVC012
     FM231400 18013G20KT 6SM -SHRA SCT025 OVC035=



000
FTUS42 KJAX 222300 AAA
TAFGNV
TAF AMD
KGNV 222305Z 2223/2318 09010KT P6SM SCT025 OVC035
     FM230500 11008KT P6SM VCTS SCT012 OVC025CB WS020/14040KT
      TEMPO 2306/2310 3SM SHRA SCT006 OVC012
     FM231400 18013G20KT 6SM -SHRA SCT025 OVC035=



000
FTUS42 KJAX 222200 AAA
TAFCRG
TAF AMD
KCRG 222228Z 2222/2318 09010KT P6SM VCSH SCT025 OVC035
     FM230600 13010KT P6SM VCTS SCT012 OVC020CB WS020/15040KT
      TEMPO 2308/2312 3SM RA BR SCT008 OVC015
     FM231600 18014G22KT 6SM -SHRA SCT025 OVC035=



000
FTUS42 KJAX 222200 AAA
TAFJAX
TAF AMD
KJAX 222225Z 2222/2318 09010KT P6SM VCSH SCT025 OVC035
     FM230600 13010KT P6SM VCTS SCT012 OVC020CB WS020/15040KT
      TEMPO 2308/2312 3SM RA BR SCT008 OVC015
     FM231600 18014G22KT 6SM -SHRA SCT025 OVC035=



000
FTUS42 KJAX 221700
TAFCRG
TAF
KCRG 221736Z 2218/2318 08014G22KT P6SM VCSH OVC035
     FM222200 07012G18KT 6SM -RA OVC025
     FM230200 06012G18KT 5SM RA BR OVC015
     FM230600 09010KT 4SM RA BR OVC008 WS020/14040KT
     FM231600 16014G22KT 5SM SHRA OVC015=



000
FTUS42 KJAX 221700
TAFJAX
TAF
KJAX 221736Z 2218/2318 08014G22KT P6SM VCSH OVC035
     FM222200 07012G18KT 6SM -RA OVC025
     FM230200 06012G18KT 5SM RA BR OVC015
     FM230600 09010KT 4SM RA BR OVC008 WS020/14040KT
     FM231600 16014G22KT 5SM SHRA OVC015=



000
FTUS42 KJAX 221700
TAFSSI
TAF
KSSI 221736Z 2218/2318 05014G22KT P6SM VCSH OVC035
     FM230000 05014G22KT 6SM -RA OVC025
     FM230400 05014G22KT 5SM RA BR OVC015
     FM230800 09010KT 4SM RA BR OVC008 WS020/14040KT=



000
FTUS42 KJAX 221700
TAFGNV
TAF
KGNV 221736Z 2218/2318 07010KT P6SM -RA OVC035
     FM222000 07010KT 6SM -RA BR OVC025
     FM230000 06008KT 5SM RA BR OVC015
     FM230400 09008KT 4SM RA BR OVC008 WS020/14040KT
     FM231400 16013G20KT 6SM SHRA OVC015=



000
FTUS42 KJAX 221500 AAA
TAFSSI
TAF AMD
KSSI 221518Z 2215/2312 04012G20KT P6SM OVC035
     FM222100 05015G25KT P6SM VCSH BKN025 OVC070
     FM230200 06013KT 5SM -RA BR OVC015 WS020/10040KT=



000
FTUS42 KJAX 221500 AAA
TAFGNV
TAF AMD
KGNV 221515Z 2215/2312 04008KT P6SM VCSH OVC035
     FM221800 06010G16KT P6SM -RA BKN025 OVC070
     FM230000 08010KT 5SM -RA BR OVC008 WS020/12040KT=



000
FTUS42 KJAX 221500 AAA
TAFCRG
TAF AMD
KCRG 221511Z 2215/2312 07012G18KT P6SM VCSH OVC035
     FM221800 08013G22KT P6SM VCSH BKN025 OVC070
     FM230000 09010KT 5SM -RA BR OVC010 WS020/12040KT=



000
FTUS42 KJAX 221500 AAA
TAFJAX
TAF AMD
KJAX 221509Z 2215/2312 04010KT P6SM VCSH OVC035
     FM221800 06010G15KT P6SM VCSH BKN025 OVC070
     FM222000 07013G22KT P6SM VCSH BKN020 OVC070
     FM230000 09010KT 5SM -RA BR OVC010 WS020/12040KT=



000
FTUS42 KJAX 221100
TAFGNV
TAF
KGNV 221120Z 2212/2312 03007KT P6SM SCT025 BKN050 BKN080
     FM221400 06010G15KT P6SM VCSH BKN025 OVC070
     FM221600 07013G22KT P6SM VCSH BKN020 OVC070
     FM222200 08010KT 5SM -RA BR OVC008 WS020/12040KT=



000
FTUS42 KJAX 221100
TAFSSI
TAF
KSSI 221120Z 2212/2312 03012G18KT P6SM SCT025 BKN050
     FM221500 04013G20KT P6SM VCSH BKN025 OVC070
     FM221700 05015G25KT P6SM VCSH BKN020 OVC070
     FM230200 06013KT 5SM -RA BR OVC015 WS020/10040KT=



000
FTUS42 KJAX 221100
TAFJAX
TAF
KJAX 221120Z 2212/2312 03007KT P6SM SCT025 BKN050
     FM221400 06010G15KT P6SM VCSH BKN025 OVC070
     FM221600 07013G22KT P6SM VCSH BKN020 OVC070
     FM230000 09010KT 5SM -RA BR OVC010 WS020/12040KT=



000
FTUS42 KJAX 221100
TAFCRG
TAF
KCRG 221120Z 2212/2312 03008KT P6SM SCT025 BKN050
     FM221400 05010G15KT P6SM VCSH BKN025 OVC070
     FM221600 06013G22KT P6SM VCSH BKN020 OVC070
     FM230000 09010KT 5SM -RA BR OVC010 WS020/12040KT=



000
FTUS42 KJAX 220500
TAFGNV
TAF
KGNV 220520Z 2206/2306 03005KT P6SM FEW035 SCT100
     FM221100 03007KT P6SM SCT025 BKN035 BKN080
     FM221300 06010G15KT P6SM VCSH BKN025 OVC070
     FM221600 07013G22KT P6SM VCSH BKN020 OVC070
     FM222200 08010KT 5SM -RA BR OVC012=



000
FTUS42 KJAX 220500
TAFJAX
TAF
KJAX 220520Z 2206/2306 03005KT P6SM FEW035 SCT100
     FM221100 03007KT P6SM SCT025 BKN035 BKN080
     FM221300 06010G15KT P6SM VCSH BKN025 OVC070
     FM221600 07013G22KT P6SM VCSH BKN020 OVC070
     FM230000 08010KT 5SM -RA BR OVC015=



000
FTUS42 KJAX 220500
TAFSSI
TAF
KSSI 220520Z 2206/2306 04010KT P6SM FEW035 SCT100
     FM221100 03011KT P6SM SCT025 BKN035 BKN080
     FM221300 04013G18KT P6SM VCSH BKN025 OVC070
     FM221600 05015G24KT P6SM VCSH BKN020 OVC070
     FM230200 06012KT 5SM -RA BR OVC015=



000
FTUS42 KJAX 220500
TAFCRG
TAF
KCRG 220520Z 2206/2306 03005KT P6SM FEW035 SCT100
     FM221100 03007KT P6SM SCT025 BKN035 BKN080
     FM221300 05010G15KT P6SM VCSH BKN025 OVC070
     FM221600 06013G22KT P6SM VCSH BKN020 OVC070
     FM230000 07010KT 5SM -RA BR OVC015=



    US Dept of Commerce
    National Oceanic and Atmospheric Administration
    National Weather Service
    1325 East West Highway
    Silver Spring, MD 20910
    Page Author: NWS Internet Services Team
Disclaimer
Information Quality
Credits
Glossary
Privacy Policy
Freedom of Information Act (FOIA)
About Us
Career Opportunities